createdAt,value
2022-10-09T00:01:22.737Z,10.43
2022-10-09T00:03:51.705Z,10.47
2022-10-09T00:06:22.414Z,10.44
2022-10-09T00:08:50.028Z,10.38
2022-10-09T00:11:20.798Z,10.52
2022-10-09T00:13:51.046Z,10.51
2022-10-09T00:16:19.554Z,10.53
2022-10-09T00:18:47.814Z,10.37
2022-10-09T00:21:32.155Z,10.45
2022-10-09T00:24:02.352Z,10.45
2022-10-09T00:26:31.581Z,10.46
2022-10-09T00:28:59.020Z,10.39
2022-10-09T00:31:26.772Z,10.45
2022-10-09T00:33:55.309Z,10.44
2022-10-09T00:36:25.133Z,10.52
2022-10-09T00:38:54.475Z,10.49
2022-10-09T00:41:25.377Z,10.41
2022-10-09T00:43:56.534Z,10.49
2022-10-09T00:46:35.859Z,10.47
2022-10-09T00:49:25.849Z,10.15
2022-10-09T00:51:56.739Z,10.26
2022-10-09T00:54:31.888Z,10.36
2022-10-09T00:57:00.161Z,10.17
2022-10-09T00:59:28.172Z,10.22
2022-10-09T01:01:55.429Z,10.26
2022-10-09T01:04:23.005Z,10.01
2022-10-09T01:06:56.128Z,10.25
2022-10-09T01:09:49.625Z,10.09
2022-10-09T01:12:22.563Z,10.20
2022-10-09T01:15:21.047Z,10.17
2022-10-09T01:18:21.548Z,10.15
2022-10-09T01:20:59.307Z,10.08
2022-10-09T01:23:42.035Z,10.09
2022-10-09T01:26:27.523Z,10.05
2022-10-09T01:28:59.394Z,10.04
2022-10-09T01:31:27.820Z,10.02
2022-10-09T01:34:25.884Z,10.01
2022-10-09T01:36:54.946Z,9.83
2022-10-09T01:39:24.197Z,9.83
2022-10-09T01:41:55.119Z,9.77
2022-10-09T01:44:31.108Z,9.87
2022-10-09T01:46:59.686Z,9.63
2022-10-09T01:49:52.048Z,9.80
2022-10-09T01:52:27.361Z,9.71
2022-10-09T01:55:03.768Z,9.78
2022-10-09T01:57:47.095Z,9.65
2022-10-09T02:00:17.981Z,9.55
2022-10-09T02:02:48.593Z,9.51
2022-10-09T02:05:22.562Z,9.57
2022-10-09T02:07:52.532Z,9.43
2022-10-09T02:10:22.479Z,9.54
2022-10-09T02:12:58.138Z,9.55
2022-10-09T02:15:31.230Z,9.62
2022-10-09T02:18:05.230Z,9.48
2022-10-09T02:20:36.563Z,9.39
2022-10-09T02:23:08.001Z,9.26
2022-10-09T02:25:37.932Z,9.35
2022-10-09T02:28:05.896Z,9.25
2022-10-09T02:30:46.568Z,9.09
2022-10-09T02:33:13.977Z,9.06
2022-10-09T02:35:41.542Z,9.13
2022-10-09T02:38:09.045Z,9.14
2022-10-09T02:40:36.123Z,9.10
2022-10-09T02:43:05.238Z,9.20
2022-10-09T02:45:34.958Z,9.06
2022-10-09T02:48:02.255Z,9.07
2022-10-09T02:50:29.517Z,9.06
2022-10-09T02:57:29.256Z,9.28
2022-10-09T02:59:56.354Z,9.09
2022-10-09T03:02:24.337Z,9.04
2022-10-09T03:04:53.841Z,9.23
2022-10-09T03:07:23.627Z,9.22
2022-10-09T03:09:50.919Z,9.16
2022-10-09T03:12:21.417Z,9.31
2022-10-09T03:14:49.890Z,9.21
2022-10-09T03:17:17.461Z,9.38
2022-10-09T03:19:44.665Z,9.30
2022-10-09T03:22:11.861Z,9.22
2022-10-09T03:24:42.592Z,9.26
2022-10-09T03:27:09.858Z,9.25
2022-10-09T03:29:37.096Z,9.32
2022-10-09T03:32:04.298Z,9.20
2022-10-09T03:34:32.052Z,9.42
2022-10-09T03:36:59.240Z,9.33
2022-10-09T03:39:26.648Z,9.16
2022-10-09T03:41:54.030Z,9.30
2022-10-09T03:44:28.299Z,9.20
2022-10-09T03:46:58.680Z,9.30
2022-10-09T03:49:26.155Z,9.37
2022-10-09T03:51:53.536Z,9.41
2022-10-09T03:54:22.006Z,9.38
2022-10-09T03:56:49.253Z,9.18
2022-10-09T03:59:16.617Z,9.32
2022-10-09T04:01:44.199Z,9.12
2022-10-09T04:04:12.738Z,9.31
2022-10-09T04:06:40.057Z,9.33
2022-10-09T04:09:10.409Z,9.09
2022-10-09T04:11:37.876Z,9.22
2022-10-09T04:14:08.419Z,9.22
2022-10-09T04:16:36.054Z,9.31
2022-10-09T04:19:03.478Z,9.17
2022-10-09T04:21:30.994Z,9.12
2022-10-09T04:23:59.686Z,9.22
2022-10-09T04:26:27.026Z,9.44
2022-10-09T04:28:54.806Z,9.32
2022-10-09T04:31:22.232Z,9.33
2022-10-09T04:34:16.677Z,9.54
2022-10-09T04:36:44.019Z,9.52
2022-10-09T04:39:11.431Z,9.30
2022-10-09T04:41:39.204Z,9.26
2022-10-09T04:44:07.003Z,9.37
2022-10-09T04:46:39.897Z,9.18
2022-10-09T04:49:14.798Z,9.20
2022-10-09T04:51:45.816Z,9.35
2022-10-09T04:54:13.477Z,9.43
2022-10-09T04:56:40.691Z,9.28
2022-10-09T04:59:07.916Z,9.30
2022-10-09T05:01:38.269Z,9.26
2022-10-09T05:04:08.795Z,9.30
2022-10-09T05:06:36.142Z,9.32
2022-10-09T05:09:03.910Z,9.50
2022-10-09T05:11:31.358Z,9.70
2022-10-09T05:14:01.276Z,9.62
2022-10-09T05:16:37.658Z,9.69
2022-10-09T05:19:17.017Z,9.68
2022-10-09T05:21:44.339Z,9.73
2022-10-09T05:24:19.833Z,9.90
2022-10-09T05:26:47.293Z,10.03
2022-10-09T05:29:14.451Z,10.17
2022-10-09T05:31:49.154Z,10.70
2022-10-09T05:34:17.243Z,11.61
2022-10-09T05:36:54.318Z,12.07
2022-10-09T05:39:21.695Z,12.95
2022-10-09T05:41:53.276Z,13.46
2022-10-09T05:44:26.554Z,13.80
2022-10-09T05:47:21.122Z,14.05
2022-10-09T05:50:06.343Z,14.14
2022-10-09T05:53:08.910Z,13.57
2022-10-09T05:55:34.865Z,13.27
2022-10-09T05:58:04.836Z,12.86
2022-10-09T06:00:37.679Z,12.85
2022-10-09T06:03:48.304Z,12.57
2022-10-09T06:06:23.803Z,12.43
2022-10-09T06:08:54.883Z,12.41
2022-10-09T06:11:37.233Z,12.24
2022-10-09T06:14:09.345Z,12.51
2022-10-09T06:16:42.198Z,12.46
2022-10-09T06:19:12.760Z,12.78
2022-10-09T06:21:40.379Z,12.93
2022-10-09T06:24:08.618Z,12.95
2022-10-09T06:26:35.985Z,13.22
2022-10-09T06:29:03.910Z,13.53
2022-10-09T06:31:33.956Z,13.40
2022-10-09T06:34:03.959Z,13.28
2022-10-09T06:36:34.478Z,13.27
2022-10-09T06:39:05.740Z,13.24
2022-10-09T06:41:34.186Z,12.90
2022-10-09T06:44:16.866Z,12.95
2022-10-09T06:46:50.302Z,13.31
2022-10-09T06:49:18.045Z,13.34
2022-10-09T06:51:46.856Z,13.37
2022-10-09T06:54:17.634Z,13.28
2022-10-09T06:56:45.346Z,13.35
2022-10-09T06:59:13.511Z,13.38
2022-10-09T07:01:40.920Z,13.16
2022-10-09T07:04:15.608Z,13.52
2022-10-09T07:06:48.008Z,13.53
2022-10-09T07:09:16.612Z,13.76
2022-10-09T07:11:49.529Z,13.88
2022-10-09T07:14:17.533Z,14.08
2022-10-09T07:16:46.920Z,14.19
2022-10-09T07:19:16.121Z,14.12
2022-10-09T07:21:45.672Z,13.94
2022-10-09T07:24:14.253Z,13.98
2022-10-09T07:26:44.287Z,14.16
2022-10-09T07:29:14.888Z,14.39
2022-10-09T07:31:42.176Z,14.40
2022-10-09T07:34:09.592Z,14.63
2022-10-09T07:36:38.083Z,14.75
2022-10-09T07:39:06.076Z,15.22
2022-10-09T07:41:35.367Z,16.22
2022-10-09T07:44:04.937Z,17.36
2022-10-09T07:46:34.012Z,18.53
2022-10-09T07:49:02.548Z,19.39
2022-10-09T07:51:30.885Z,20.06
2022-10-09T07:54:02.460Z,20.35
2022-10-09T07:56:35.512Z,20.64
2022-10-09T07:59:06.024Z,20.57
2022-10-09T08:01:35.587Z,21.15
2022-10-09T08:04:08.800Z,21.27
2022-10-09T08:06:36.581Z,21.69
2022-10-09T08:09:07.587Z,21.71
2022-10-09T08:11:35.555Z,21.47
2022-10-09T08:14:04.165Z,21.44
2022-10-09T08:16:32.546Z,21.93
2022-10-09T08:19:01.675Z,21.83
2022-10-09T08:21:29.812Z,21.94
2022-10-09T08:23:59.536Z,22.19
2022-10-09T08:26:29.646Z,22.02
2022-10-09T08:29:10.039Z,22.53
2022-10-09T08:31:40.386Z,22.40
2022-10-09T08:34:10.830Z,21.87
2022-10-09T08:36:38.185Z,21.79
2022-10-09T08:39:17.609Z,22.00
2022-10-09T08:41:54.334Z,22.93
2022-10-09T08:44:31.955Z,23.39
2022-10-09T08:47:11.473Z,22.92
2022-10-09T08:49:54.256Z,22.82
2022-10-09T08:52:24.364Z,22.92
2022-10-09T08:54:55.640Z,23.28
2022-10-09T08:57:23.750Z,23.39
2022-10-09T08:59:53.830Z,22.89
2022-10-09T09:02:36.674Z,21.68
2022-10-09T09:05:44.849Z,20.94
2022-10-09T09:08:27.549Z,21.92
2022-10-09T09:11:21.580Z,21.98
2022-10-09T09:13:58.505Z,22.13
2022-10-09T09:16:41.411Z,22.71
2022-10-09T09:19:43.805Z,22.64
2022-10-09T09:22:14.536Z,22.38
2022-10-09T09:24:51.622Z,22.60
2022-10-09T09:27:21.819Z,21.91
2022-10-09T09:29:59.573Z,21.77
2022-10-09T09:32:29.693Z,21.15
2022-10-09T09:35:43.389Z,20.55
2022-10-09T09:38:10.685Z,20.65
2022-10-09T09:40:38.934Z,20.86
2022-10-09T09:43:24.999Z,20.82
2022-10-09T09:45:57.992Z,21.54
2022-10-09T09:48:36.537Z,20.96
2022-10-09T09:51:28.040Z,20.93
2022-10-09T09:54:06.848Z,20.42
2022-10-09T09:57:10.268Z,19.68
2022-10-09T09:59:38.650Z,19.40
2022-10-09T10:02:16.227Z,19.82
2022-10-09T10:05:17.602Z,20.30
2022-10-09T10:07:44.884Z,20.73
2022-10-09T10:10:24.963Z,20.27
2022-10-09T10:12:56.459Z,20.62
2022-10-09T10:15:26.591Z,20.33
2022-10-09T10:18:12.631Z,19.97
2022-10-09T10:20:49.270Z,20.05
2022-10-09T10:23:24.443Z,20.25
2022-10-09T10:25:57.340Z,20.05
2022-10-09T10:28:36.047Z,20.28
2022-10-09T10:31:07.983Z,19.70
2022-10-09T10:33:37.677Z,19.16
2022-10-09T10:36:10.349Z,18.51
2022-10-09T10:38:53.053Z,18.46
2022-10-09T10:41:36.800Z,18.40
2022-10-09T10:44:33.944Z,18.28
2022-10-09T10:47:14.815Z,18.06
2022-10-09T10:49:42.295Z,18.13
2022-10-09T10:52:57.224Z,17.97
2022-10-09T10:55:40.879Z,18.27
2022-10-09T10:58:28.425Z,17.98
2022-10-09T11:01:14.509Z,18.27
2022-10-09T11:04:08.039Z,18.33
2022-10-09T11:06:54.062Z,18.29
2022-10-09T11:09:32.601Z,18.34
2022-10-09T11:12:24.665Z,18.24
2022-10-09T11:15:48.313Z,18.16
2022-10-09T11:18:45.097Z,17.94
2022-10-09T11:21:40.809Z,17.92
2022-10-09T11:24:49.011Z,17.86
2022-10-09T11:27:33.728Z,18.01
2022-10-09T11:30:05.965Z,18.16
2022-10-09T11:35:15.909Z,18.21
2022-10-09T11:40:37.662Z,17.93
2022-10-09T11:43:26.531Z,17.88
2022-10-09T11:46:02.676Z,17.48
2022-10-09T11:48:38.025Z,17.57
2022-10-09T11:51:50.890Z,17.72
2022-10-09T11:54:23.199Z,17.54
2022-10-09T11:56:53.873Z,17.58
2022-10-09T11:59:30.546Z,17.44
2022-10-09T12:02:23.785Z,17.36
2022-10-09T12:04:55.396Z,17.18
2022-10-09T12:07:28.240Z,17.30
2022-10-09T12:10:23.880Z,17.17
2022-10-09T12:13:06.977Z,17.11
2022-10-09T12:15:40.151Z,17.02
2022-10-09T12:18:23.462Z,16.95
2022-10-09T12:20:54.922Z,16.92
2022-10-09T12:23:27.631Z,16.98
2022-10-09T12:25:56.477Z,16.92
2022-10-09T12:28:52.235Z,16.83
2022-10-09T12:31:33.293Z,16.91
2022-10-09T12:34:52.132Z,16.71
2022-10-09T12:37:22.158Z,16.66
2022-10-09T12:39:50.424Z,16.69
2022-10-09T12:42:25.440Z,16.72
2022-10-09T12:44:55.569Z,16.61
2022-10-09T12:47:29.614Z,16.57
2022-10-09T12:50:05.076Z,16.57
2022-10-09T12:52:33.337Z,16.55
2022-10-09T12:55:04.865Z,16.54
2022-10-09T12:57:33.108Z,16.55
2022-10-09T13:00:00.638Z,16.50
2022-10-09T13:02:28.955Z,16.30
2022-10-09T13:05:02.411Z,16.51
2022-10-09T13:07:32.760Z,16.39
2022-10-09T13:10:04.650Z,16.09
2022-10-09T13:12:40.439Z,15.65
2022-10-09T13:15:32.849Z,15.44
2022-10-09T13:18:14.051Z,15.23
2022-10-09T13:20:41.503Z,14.82
2022-10-09T13:23:28.969Z,14.56
2022-10-09T13:25:59.981Z,14.27
2022-10-09T13:28:31.890Z,14.29
2022-10-09T13:31:07.634Z,14.01
2022-10-09T13:33:41.381Z,14.08
2022-10-09T13:36:12.342Z,14.05
2022-10-09T13:38:39.926Z,14.05
2022-10-09T13:41:13.829Z,13.85
2022-10-09T13:43:42.677Z,13.66
2022-10-09T13:46:10.297Z,13.63
2022-10-09T13:48:38.200Z,13.39
2022-10-09T13:51:06.686Z,13.22
2022-10-09T13:53:35.895Z,13.16
2022-10-09T13:56:04.108Z,12.99
2022-10-09T13:58:31.811Z,13.05
2022-10-09T14:00:59.380Z,13.20
2022-10-09T14:03:27.834Z,13.11
2022-10-09T14:06:00.091Z,13.07
2022-10-09T14:08:27.557Z,13.16
2022-10-09T14:10:55.322Z,13.32
2022-10-09T14:13:23.520Z,13.24
2022-10-09T14:15:53.259Z,13.26
2022-10-09T14:18:20.468Z,13.43
2022-10-09T14:20:47.996Z,13.55
2022-10-09T14:23:15.419Z,13.24
2022-10-09T14:25:42.657Z,12.94
2022-10-09T14:28:10.874Z,13.07
2022-10-09T14:30:43.757Z,12.87
2022-10-09T14:33:12.995Z,12.91
2022-10-09T14:35:40.281Z,12.79
2022-10-09T14:38:09.943Z,12.80
2022-10-09T14:40:43.537Z,12.74
2022-10-09T14:43:12.324Z,12.59
2022-10-09T14:45:40.904Z,12.74
2022-10-09T14:48:08.310Z,12.65
2022-10-09T14:50:36.565Z,12.58
2022-10-09T14:53:04.315Z,12.43
2022-10-09T14:55:34.452Z,12.38
2022-10-09T14:58:01.900Z,12.11
2022-10-09T15:00:29.611Z,12.07
2022-10-09T15:02:59.707Z,12.27
2022-10-09T15:05:41.482Z,12.14
2022-10-09T15:08:31.441Z,11.89
2022-10-09T15:10:59.135Z,11.99
2022-10-09T15:13:26.789Z,12.06
2022-10-09T15:16:02.232Z,11.77
2022-10-09T15:18:31.704Z,11.97
2022-10-09T15:20:59.978Z,11.94
2022-10-09T15:23:37.009Z,11.98
2022-10-09T15:26:09.175Z,11.92
2022-10-09T15:28:41.784Z,11.91
2022-10-09T15:31:28.749Z,11.96
2022-10-09T15:33:58.974Z,12.07
2022-10-09T15:36:27.567Z,11.98
2022-10-09T15:38:55.149Z,12.11
2022-10-09T15:41:26.608Z,12.17
2022-10-09T15:43:58.928Z,12.05
2022-10-09T15:46:55.866Z,11.95
2022-10-09T15:51:59.416Z,11.80
2022-10-09T15:53:22.255Z,11.86
2022-10-09T15:56:07.884Z,11.94
2022-10-09T15:58:38.129Z,11.67
2022-10-09T16:01:09.634Z,11.77
2022-10-09T16:03:39.235Z,11.80
2022-10-09T16:06:13.897Z,11.72
2022-10-09T16:08:45.584Z,11.82
2022-10-09T16:11:18.006Z,11.71
2022-10-09T16:13:48.412Z,11.69
2022-10-09T16:16:21.857Z,11.80
2022-10-09T16:18:49.967Z,11.73
2022-10-09T16:21:20.188Z,11.57
2022-10-09T16:23:48.650Z,11.46
2022-10-09T16:26:18.752Z,11.47
2022-10-09T16:28:47.681Z,11.42
2022-10-09T16:31:26.287Z,11.70
2022-10-09T16:33:56.681Z,11.62
2022-10-09T16:36:24.339Z,11.44
2022-10-09T16:39:02.685Z,11.49
2022-10-09T16:41:31.024Z,11.38
2022-10-09T16:44:00.446Z,11.43
2022-10-09T16:46:29.152Z,11.64
2022-10-09T16:48:58.542Z,11.50
2022-10-09T16:51:34.696Z,11.58
2022-10-09T16:54:07.319Z,11.54
2022-10-09T16:56:40.679Z,11.44
2022-10-09T16:59:12.010Z,11.36
2022-10-09T17:01:46.831Z,11.33
2022-10-09T17:04:17.421Z,11.52
2022-10-09T17:06:55.587Z,11.33
2022-10-09T17:09:26.938Z,11.33
2022-10-09T17:11:55.180Z,11.32
2022-10-09T17:15:41.699Z,11.47
2022-10-09T17:18:12.161Z,11.42
2022-10-09T17:20:41.380Z,11.37
2022-10-09T17:23:10.682Z,11.29
2022-10-09T17:25:46.128Z,11.51
2022-10-09T17:28:15.129Z,11.37
2022-10-09T17:30:42.375Z,11.54
2022-10-09T17:33:19.648Z,11.42
2022-10-09T17:35:47.781Z,11.37
2022-10-09T17:38:17.812Z,11.37
2022-10-09T17:40:46.684Z,11.40
2022-10-09T17:43:16.504Z,11.40
2022-10-09T17:45:44.224Z,11.31
2022-10-09T17:48:15.108Z,11.34
2022-10-09T17:50:54.621Z,11.34
2022-10-09T17:53:27.418Z,11.35
2022-10-09T17:55:58.664Z,11.39
2022-10-09T17:58:26.845Z,11.12
2022-10-09T18:00:54.457Z,11.06
2022-10-09T18:03:23.698Z,11.31
2022-10-09T18:05:53.434Z,11.08
2022-10-09T18:08:20.667Z,11.19
2022-10-09T18:11:00.508Z,11.24
2022-10-09T18:13:29.036Z,11.27
2022-10-09T18:15:56.551Z,11.35
2022-10-09T18:18:24.088Z,11.31
2022-10-09T18:20:51.576Z,11.27
2022-10-09T18:23:22.748Z,11.20
2022-10-09T18:25:50.270Z,11.12
2022-10-09T18:28:19.587Z,11.25
2022-10-09T18:30:47.212Z,11.18
2022-10-09T18:33:14.904Z,11.14
2022-10-09T18:35:43.514Z,11.06
2022-10-09T18:38:11.479Z,11.22
2022-10-09T18:40:45.760Z,11.24
2022-10-09T18:43:14.138Z,11.05
2022-10-09T18:45:45.192Z,10.99
2022-10-09T18:48:14.675Z,11.17
2022-10-09T18:50:44.366Z,11.11
2022-10-09T18:53:12.240Z,11.12
2022-10-09T18:55:42.529Z,11.09
2022-10-09T18:58:10.873Z,11.07
2022-10-09T19:00:39.607Z,11.09
2022-10-09T19:03:08.146Z,11.22
2022-10-09T19:05:36.282Z,11.06
2022-10-09T19:08:04.197Z,10.95
2022-10-09T19:10:31.622Z,11.15
2022-10-09T19:13:00.365Z,11.03
2022-10-09T19:15:27.649Z,10.95
2022-10-09T19:17:54.911Z,10.90
2022-10-09T19:20:22.170Z,11.12
2022-10-09T19:22:49.664Z,11.03
2022-10-09T19:25:17.204Z,10.98
2022-10-09T19:27:44.531Z,10.95
2022-10-09T19:30:12.487Z,11.06
2022-10-09T19:32:39.796Z,10.99
2022-10-09T19:35:08.102Z,11.02
2022-10-09T19:37:35.837Z,11.07
2022-10-09T19:40:02.924Z,11.09
2022-10-09T19:42:33.632Z,11.10
2022-10-09T19:45:01.312Z,10.96
2022-10-09T19:47:29.009Z,11.22
2022-10-09T19:49:56.234Z,11.27
2022-10-09T19:52:24.513Z,11.08
2022-10-09T19:55:28.864Z,11.26
2022-10-09T19:57:58.480Z,11.03
2022-10-09T20:00:28.265Z,11.09
2022-10-09T20:02:57.673Z,11.21
2022-10-09T20:05:29.413Z,11.20
2022-10-09T20:07:57.475Z,11.13
2022-10-09T20:10:26.212Z,11.09
2022-10-09T20:12:55.465Z,11.23
2022-10-09T20:15:23.145Z,11.16
2022-10-09T20:17:50.284Z,11.24
2022-10-09T20:20:18.140Z,11.12
2022-10-09T20:22:45.383Z,11.08
2022-10-09T20:25:12.786Z,11.07
2022-10-09T20:27:41.140Z,11.37
2022-10-09T20:30:09.063Z,11.34
2022-10-09T20:32:40.062Z,11.53
2022-10-09T20:35:10.329Z,11.50
2022-10-09T20:37:37.808Z,11.37
2022-10-09T20:40:05.923Z,11.37
2022-10-09T20:42:33.236Z,11.43
2022-10-09T20:45:01.984Z,11.36
2022-10-09T20:47:29.316Z,11.44
2022-10-09T20:49:59.238Z,11.48
2022-10-09T20:52:26.600Z,11.48
2022-10-09T20:54:55.553Z,11.41
2022-10-09T20:57:22.993Z,11.43
2022-10-09T20:59:50.656Z,11.21
2022-10-09T21:02:17.954Z,11.43
2022-10-09T21:04:46.801Z,11.28
2022-10-09T21:07:14.037Z,11.25
2022-10-09T21:09:41.259Z,11.31
2022-10-09T21:12:08.700Z,11.20
2022-10-09T21:14:38.662Z,11.13
2022-10-09T21:17:06.014Z,11.25
2022-10-09T21:19:34.012Z,11.19
2022-10-09T21:22:01.380Z,11.40
2022-10-09T21:24:34.701Z,11.44
2022-10-09T21:27:02.812Z,11.49
2022-10-09T21:29:30.188Z,11.40
2022-10-09T21:31:57.530Z,11.38
2022-10-09T21:34:27.326Z,11.43
2022-10-09T21:37:19.827Z,11.47
2022-10-09T21:39:42.893Z,11.47
2022-10-09T21:42:10.107Z,11.30
2022-10-09T21:44:37.595Z,11.32
2022-10-09T21:47:05.241Z,11.21
2022-10-09T21:49:32.770Z,11.21
2022-10-09T21:52:00.256Z,11.21
2022-10-09T21:54:27.897Z,11.20
2022-10-09T21:56:55.427Z,11.24
2022-10-09T21:59:22.637Z,11.33
2022-10-09T22:01:50.664Z,11.18
2022-10-09T22:04:20.478Z,11.36
2022-10-09T22:06:48.298Z,11.69
2022-10-09T22:09:15.607Z,11.69
2022-10-09T22:11:44.846Z,11.44
2022-10-09T22:14:14.277Z,11.45
2022-10-09T22:16:41.900Z,11.38
2022-10-09T22:19:09.390Z,11.55
2022-10-09T22:21:36.778Z,11.40
2022-10-09T22:24:05.463Z,11.43
2022-10-09T22:26:32.810Z,11.49
2022-10-09T22:29:00.890Z,11.31
2022-10-09T22:31:29.168Z,11.46
2022-10-09T22:34:02.375Z,11.19
2022-10-09T22:36:32.317Z,11.37
2022-10-09T22:39:02.145Z,11.32
2022-10-09T22:41:30.850Z,11.34
2022-10-09T22:44:01.007Z,11.38
2022-10-09T22:46:31.548Z,11.20
2022-10-09T22:48:58.951Z,11.22
2022-10-09T22:51:27.897Z,11.23
2022-10-09T22:54:00.521Z,11.18
2022-10-09T22:56:31.355Z,11.35
2022-10-09T22:58:59.099Z,11.36
2022-10-09T23:01:39.055Z,11.27
2022-10-09T23:04:11.810Z,11.26
2022-10-09T23:06:40.355Z,11.36
2022-10-09T23:09:10.844Z,11.15
2022-10-09T23:11:38.009Z,11.16
2022-10-09T23:14:06.894Z,11.25
2022-10-09T23:16:34.767Z,11.22
2022-10-09T23:19:06.450Z,11.28
2022-10-09T23:21:35.757Z,11.18
2022-10-09T23:28:09.642Z,11.17
2022-10-09T23:30:37.525Z,11.14
2022-10-09T23:33:06.292Z,11.12
2022-10-09T23:35:33.749Z,11.13
2022-10-09T23:38:00.894Z,11.13
2022-10-09T23:40:28.315Z,11.11
2022-10-09T23:42:55.775Z,11.08
2022-10-09T23:45:23.094Z,11.12
2022-10-09T23:47:50.212Z,11.15
2022-10-09T23:50:17.620Z,11.05
2022-10-09T23:52:45.040Z,11.13
2022-10-09T23:55:12.309Z,10.96
2022-10-09T23:57:39.848Z,11.08
